sensor_id;sensor_type;location;lat;lon;timestamp;P1;durP1;ratioP1;P2;durP2;ratioP2
52940;SDS011;62001;53.366;6.636;2023-11-22T00:00:44;11.53;;;7.70;;
52940;SDS011;62001;53.366;6.636;2023-11-22T00:03:10;12.10;;;7.87;;
52940;SDS011;62001;53.366;6.636;2023-11-22T00:05:36;12.50;;;8.20;;
52940;SDS011;62001;53.366;6.636;2023-11-22T00:08:02;12.63;;;8.67;;
52940;SDS011;62001;53.366;6.636;2023-11-22T00:10:28;12.17;;;8.23;;
52940;SDS011;62001;53.366;6.636;2023-11-22T00:12:53;13.60;;;8.73;;
52940;SDS011;62001;53.366;6.636;2023-11-22T00:15:19;12.43;;;9.13;;
52940;SDS011;62001;53.366;6.636;2023-11-22T00:17:45;14.03;;;8.93;;
52940;SDS011;62001;53.366;6.636;2023-11-22T00:20:11;16.07;;;9.60;;
52940;SDS011;62001;53.366;6.636;2023-11-22T00:22:37;14.93;;;9.53;;
52940;SDS011;62001;53.366;6.636;2023-11-22T00:25:03;14.43;;;9.37;;
52940;SDS011;62001;53.366;6.636;2023-11-22T00:27:30;17.43;;;9.70;;
52940;SDS011;62001;53.366;6.636;2023-11-22T00:29:59;15.23;;;9.40;;
52940;SDS011;62001;53.366;6.636;2023-11-22T00:32:25;13.00;;;8.60;;
52940;SDS011;62001;53.366;6.636;2023-11-22T00:34:51;14.13;;;8.30;;
52940;SDS011;62001;53.366;6.636;2023-11-22T00:37:17;13.37;;;8.10;;
52940;SDS011;62001;53.366;6.636;2023-11-22T00:39:43;15.50;;;8.03;;
52940;SDS011;62001;53.366;6.636;2023-11-22T00:42:10;12.57;;;7.70;;
52940;SDS011;62001;53.366;6.636;2023-11-22T00:44:35;15.87;;;8.53;;
52940;SDS011;62001;53.366;6.636;2023-11-22T00:47:01;14.33;;;8.30;;
52940;SDS011;62001;53.366;6.636;2023-11-22T00:49:28;17.43;;;9.27;;
52940;SDS011;62001;53.366;6.636;2023-11-22T00:51:54;17.27;;;9.63;;
52940;SDS011;62001;53.366;6.636;2023-11-22T00:54:19;12.93;;;8.50;;
52940;SDS011;62001;53.366;6.636;2023-11-22T00:56:46;13.43;;;9.10;;
52940;SDS011;62001;53.366;6.636;2023-11-22T00:59:12;13.23;;;8.20;;
52940;SDS011;62001;53.366;6.636;2023-11-22T01:01:39;13.43;;;8.17;;
52940;SDS011;62001;53.366;6.636;2023-11-22T01:04:06;14.63;;;9.33;;
52940;SDS011;62001;53.366;6.636;2023-11-22T01:06:32;13.90;;;8.93;;
52940;SDS011;62001;53.366;6.636;2023-11-22T01:08:58;14.43;;;8.70;;
52940;SDS011;62001;53.366;6.636;2023-11-22T01:11:24;13.07;;;8.13;;
52940;SDS011;62001;53.366;6.636;2023-11-22T01:13:51;13.53;;;8.57;;
52940;SDS011;62001;53.366;6.636;2023-11-22T01:16:17;16.10;;;9.27;;
52940;SDS011;62001;53.366;6.636;2023-11-22T01:18:43;14.17;;;8.37;;
52940;SDS011;62001;53.366;6.636;2023-11-22T01:21:11;14.33;;;8.53;;
52940;SDS011;62001;53.366;6.636;2023-11-22T01:23:37;15.57;;;9.00;;
52940;SDS011;62001;53.366;6.636;2023-11-22T01:26:03;13.43;;;9.27;;
52940;SDS011;62001;53.366;6.636;2023-11-22T01:28:30;12.17;;;8.27;;
52940;SDS011;62001;53.366;6.636;2023-11-22T01:30:59;11.67;;;7.67;;
52940;SDS011;62001;53.366;6.636;2023-11-22T01:33:26;11.23;;;6.63;;
52940;SDS011;62001;53.366;6.636;2023-11-22T01:35:52;12.17;;;8.07;;
52940;SDS011;62001;53.366;6.636;2023-11-22T01:38:18;12.90;;;7.63;;
52940;SDS011;62001;53.366;6.636;2023-11-22T01:40:44;13.33;;;7.80;;
52940;SDS011;62001;53.366;6.636;2023-11-22T01:43:18;13.97;;;8.00;;
52940;SDS011;62001;53.366;6.636;2023-11-22T01:45:46;13.60;;;8.15;;
52940;SDS011;62001;53.366;6.636;2023-11-22T01:48:12;13.17;;;8.70;;
52940;SDS011;62001;53.366;6.636;2023-11-22T01:50:41;16.20;;;9.17;;
52940;SDS011;62001;53.366;6.636;2023-11-22T01:55:35;13.73;;;8.53;;
52940;SDS011;62001;53.366;6.636;2023-11-22T01:58:02;15.90;;;9.30;;
52940;SDS011;62001;53.366;6.636;2023-11-22T02:00:31;17.33;;;9.57;;
52940;SDS011;62001;53.366;6.636;2023-11-22T02:03:00;16.70;;;9.73;;
52940;SDS011;62001;53.366;6.636;2023-11-22T02:05:27;16.77;;;9.33;;
52940;SDS011;62001;53.366;6.636;2023-11-22T02:07:53;17.53;;;10.50;;
52940;SDS011;62001;53.366;6.636;2023-11-22T02:10:20;16.27;;;9.47;;
52940;SDS011;62001;53.366;6.636;2023-11-22T02:12:46;13.33;;;9.10;;
52940;SDS011;62001;53.366;6.636;2023-11-22T02:15:12;14.23;;;9.37;;
52940;SDS011;62001;53.366;6.636;2023-11-22T02:17:38;19.70;;;10.13;;
52940;SDS011;62001;53.366;6.636;2023-11-22T02:20:04;17.50;;;9.97;;
52940;SDS011;62001;53.366;6.636;2023-11-22T02:22:34;18.70;;;10.27;;
52940;SDS011;62001;53.366;6.636;2023-11-22T02:25:11;16.90;;;9.77;;
52940;SDS011;62001;53.366;6.636;2023-11-22T02:27:37;16.97;;;9.97;;
52940;SDS011;62001;53.366;6.636;2023-11-22T02:30:03;15.23;;;9.20;;
52940;SDS011;62001;53.366;6.636;2023-11-22T02:32:31;11.67;;;7.90;;
52940;SDS011;62001;53.366;6.636;2023-11-22T02:34:58;11.07;;;7.07;;
52940;SDS011;62001;53.366;6.636;2023-11-22T02:37:24;12.50;;;6.80;;
52940;SDS011;62001;53.366;6.636;2023-11-22T02:42:37;12.63;;;7.80;;
52940;SDS011;62001;53.366;6.636;2023-11-22T02:45:03;11.37;;;7.80;;
52940;SDS011;62001;53.366;6.636;2023-11-22T02:47:31;12.30;;;7.83;;
52940;SDS011;62001;53.366;6.636;2023-11-22T02:49:57;13.37;;;8.57;;
52940;SDS011;62001;53.366;6.636;2023-11-22T02:52:22;15.53;;;9.13;;
52940;SDS011;62001;53.366;6.636;2023-11-22T02:54:51;12.67;;;8.83;;
52940;SDS011;62001;53.366;6.636;2023-11-22T02:57:17;18.00;;;10.60;;
52940;SDS011;62001;53.366;6.636;2023-11-22T02:59:43;15.80;;;9.70;;
52940;SDS011;62001;53.366;6.636;2023-11-22T03:02:09;18.60;;;10.77;;
52940;SDS011;62001;53.366;6.636;2023-11-22T03:04:36;18.33;;;10.57;;
52940;SDS011;62001;53.366;6.636;2023-11-22T03:07:03;16.37;;;9.87;;
52940;SDS011;62001;53.366;6.636;2023-11-22T03:09:31;16.40;;;10.60;;
52940;SDS011;62001;53.366;6.636;2023-11-22T03:11:57;17.67;;;10.87;;
52940;SDS011;62001;53.366;6.636;2023-11-22T03:14:23;17.17;;;10.37;;
52940;SDS011;62001;53.366;6.636;2023-11-22T03:16:49;17.60;;;10.40;;
52940;SDS011;62001;53.366;6.636;2023-11-22T03:19:15;19.83;;;11.00;;
52940;SDS011;62001;53.366;6.636;2023-11-22T03:21:41;19.40;;;11.10;;
52940;SDS011;62001;53.366;6.636;2023-11-22T03:24:09;18.37;;;10.77;;
52940;SDS011;62001;53.366;6.636;2023-11-22T03:26:35;19.43;;;10.73;;
52940;SDS011;62001;53.366;6.636;2023-11-22T03:29:01;18.90;;;11.13;;
52940;SDS011;62001;53.366;6.636;2023-11-22T03:31:27;17.23;;;10.77;;
52940;SDS011;62001;53.366;6.636;2023-11-22T03:33:54;17.80;;;11.03;;
52940;SDS011;62001;53.366;6.636;2023-11-22T03:36:20;14.37;;;9.53;;
52940;SDS011;62001;53.366;6.636;2023-11-22T03:38:48;17.77;;;11.00;;
52940;SDS011;62001;53.366;6.636;2023-11-22T03:41:14;16.63;;;10.27;;
52940;SDS011;62001;53.366;6.636;2023-11-22T03:43:42;16.60;;;10.13;;
52940;SDS011;62001;53.366;6.636;2023-11-22T03:46:08;11.83;;;8.23;;
52940;SDS011;62001;53.366;6.636;2023-11-22T03:48:36;11.17;;;7.70;;
52940;SDS011;62001;53.366;6.636;2023-11-22T03:51:02;16.60;;;9.57;;
52940;SDS011;62001;53.366;6.636;2023-11-22T03:53:28;15.23;;;9.70;;
52940;SDS011;62001;53.366;6.636;2023-11-22T03:55:54;15.13;;;9.17;;
52940;SDS011;62001;53.366;6.636;2023-11-22T03:58:20;18.83;;;10.00;;
52940;SDS011;62001;53.366;6.636;2023-11-22T04:00:46;14.60;;;9.40;;
52940;SDS011;62001;53.366;6.636;2023-11-22T04:03:12;16.07;;;9.43;;
52940;SDS011;62001;53.366;6.636;2023-11-22T04:05:38;17.23;;;10.27;;
52940;SDS011;62001;53.366;6.636;2023-11-22T04:08:04;17.67;;;10.20;;
52940;SDS011;62001;53.366;6.636;2023-11-22T04:10:30;21.37;;;10.83;;
52940;SDS011;62001;53.366;6.636;2023-11-22T04:12:56;20.70;;;11.60;;
52940;SDS011;62001;53.366;6.636;2023-11-22T04:15:22;18.40;;;10.77;;
52940;SDS011;62001;53.366;6.636;2023-11-22T04:17:48;17.20;;;10.73;;
52940;SDS011;62001;53.366;6.636;2023-11-22T04:20:14;18.83;;;11.50;;
52940;SDS011;62001;53.366;6.636;2023-11-22T04:22:40;20.70;;;10.80;;
52940;SDS011;62001;53.366;6.636;2023-11-22T04:25:07;19.00;;;10.97;;
52940;SDS011;62001;53.366;6.636;2023-11-22T04:27:33;21.57;;;11.30;;
52940;SDS011;62001;53.366;6.636;2023-11-22T04:29:59;18.87;;;11.17;;
52940;SDS011;62001;53.366;6.636;2023-11-22T04:32:25;19.53;;;11.37;;
52940;SDS011;62001;53.366;6.636;2023-11-22T04:34:51;19.60;;;10.93;;
52940;SDS011;62001;53.366;6.636;2023-11-22T04:37:17;24.07;;;12.43;;
52940;SDS011;62001;53.366;6.636;2023-11-22T04:39:43;19.70;;;12.17;;
52940;SDS011;62001;53.366;6.636;2023-11-22T04:42:09;24.07;;;12.63;;
52940;SDS011;62001;53.366;6.636;2023-11-22T04:44:35;24.97;;;12.93;;
52940;SDS011;62001;53.366;6.636;2023-11-22T04:47:01;21.23;;;11.83;;
52940;SDS011;62001;53.366;6.636;2023-11-22T04:49:26;18.93;;;11.73;;
52940;SDS011;62001;53.366;6.636;2023-11-22T04:51:52;22.03;;;11.97;;
52940;SDS011;62001;53.366;6.636;2023-11-22T04:54:18;14.57;;;9.53;;
52940;SDS011;62001;53.366;6.636;2023-11-22T04:56:44;15.33;;;8.53;;
52940;SDS011;62001;53.366;6.636;2023-11-22T04:59:10;19.20;;;10.77;;
52940;SDS011;62001;53.366;6.636;2023-11-22T05:01:35;13.53;;;9.07;;
52940;SDS011;62001;53.366;6.636;2023-11-22T05:04:01;18.67;;;11.17;;
52940;SDS011;62001;53.366;6.636;2023-11-22T05:06:27;22.97;;;12.00;;
52940;SDS011;62001;53.366;6.636;2023-11-22T05:08:54;28.30;;;13.97;;
52940;SDS011;62001;53.366;6.636;2023-11-22T05:11:20;29.03;;;16.00;;
52940;SDS011;62001;53.366;6.636;2023-11-22T05:13:47;25.33;;;13.97;;
52940;SDS011;62001;53.366;6.636;2023-11-22T05:16:12;27.73;;;14.37;;
52940;SDS011;62001;53.366;6.636;2023-11-22T05:18:38;25.60;;;13.30;;
52940;SDS011;62001;53.366;6.636;2023-11-22T05:21:04;25.77;;;13.87;;
52940;SDS011;62001;53.366;6.636;2023-11-22T05:23:31;24.50;;;13.97;;
52940;SDS011;62001;53.366;6.636;2023-11-22T05:25:57;29.80;;;15.20;;
52940;SDS011;62001;53.366;6.636;2023-11-22T05:28:25;21.97;;;12.80;;
52940;SDS011;62001;53.366;6.636;2023-11-22T05:30:51;19.57;;;10.77;;
52940;SDS011;62001;53.366;6.636;2023-11-22T05:33:17;15.33;;;9.60;;
52940;SDS011;62001;53.366;6.636;2023-11-22T05:35:43;19.17;;;11.23;;
52940;SDS011;62001;53.366;6.636;2023-11-22T05:38:08;17.53;;;10.67;;
52940;SDS011;62001;53.366;6.636;2023-11-22T05:40:35;20.73;;;11.47;;
52940;SDS011;62001;53.366;6.636;2023-11-22T05:43:01;23.47;;;14.07;;
52940;SDS011;62001;53.366;6.636;2023-11-22T05:45:27;25.37;;;14.57;;
52940;SDS011;62001;53.366;6.636;2023-11-22T05:47:53;30.13;;;15.57;;
52940;SDS011;62001;53.366;6.636;2023-11-22T05:50:18;32.57;;;16.70;;
52940;SDS011;62001;53.366;6.636;2023-11-22T05:52:44;29.87;;;16.13;;
52940;SDS011;62001;53.366;6.636;2023-11-22T05:55:11;26.67;;;14.83;;
52940;SDS011;62001;53.366;6.636;2023-11-22T05:57:39;27.93;;;15.70;;
52940;SDS011;62001;53.366;6.636;2023-11-22T06:00:06;24.23;;;13.77;;
52940;SDS011;62001;53.366;6.636;2023-11-22T06:02:33;23.30;;;13.90;;
52940;SDS011;62001;53.366;6.636;2023-11-22T06:04:58;25.67;;;14.60;;
52940;SDS011;62001;53.366;6.636;2023-11-22T06:07:25;26.70;;;15.10;;
52940;SDS011;62001;53.366;6.636;2023-11-22T06:09:52;28.53;;;15.60;;
52940;SDS011;62001;53.366;6.636;2023-11-22T06:12:18;28.00;;;14.97;;
52940;SDS011;62001;53.366;6.636;2023-11-22T06:14:45;28.10;;;15.57;;
52940;SDS011;62001;53.366;6.636;2023-11-22T06:17:12;25.20;;;14.43;;
52940;SDS011;62001;53.366;6.636;2023-11-22T06:19:39;25.60;;;14.23;;
52940;SDS011;62001;53.366;6.636;2023-11-22T06:22:06;26.10;;;14.77;;
52940;SDS011;62001;53.366;6.636;2023-11-22T06:24:32;27.70;;;14.93;;
52940;SDS011;62001;53.366;6.636;2023-11-22T06:27:01;30.83;;;14.97;;
52940;SDS011;62001;53.366;6.636;2023-11-22T06:29:28;28.63;;;15.10;;
52940;SDS011;62001;53.366;6.636;2023-11-22T06:31:54;35.00;;;17.17;;
52940;SDS011;62001;53.366;6.636;2023-11-22T06:34:20;32.70;;;17.20;;
52940;SDS011;62001;53.366;6.636;2023-11-22T06:36:46;35.77;;;17.73;;
52940;SDS011;62001;53.366;6.636;2023-11-22T06:39:12;41.23;;;18.93;;
52940;SDS011;62001;53.366;6.636;2023-11-22T06:41:41;36.00;;;18.37;;
52940;SDS011;62001;53.366;6.636;2023-11-22T06:44:07;40.20;;;18.83;;
52940;SDS011;62001;53.366;6.636;2023-11-22T06:46:34;38.17;;;19.53;;
52940;SDS011;62001;53.366;6.636;2023-11-22T06:49:00;42.30;;;19.77;;
52940;SDS011;62001;53.366;6.636;2023-11-22T06:51:26;46.53;;;20.87;;
52940;SDS011;62001;53.366;6.636;2023-11-22T06:53:52;45.37;;;20.17;;
52940;SDS011;62001;53.366;6.636;2023-11-22T06:56:19;41.03;;;21.53;;
52940;SDS011;62001;53.366;6.636;2023-11-22T06:58:45;48.07;;;22.23;;
52940;SDS011;62001;53.366;6.636;2023-11-22T07:01:11;51.03;;;21.37;;
52940;SDS011;62001;53.366;6.636;2023-11-22T07:03:37;48.93;;;22.73;;
52940;SDS011;62001;53.366;6.636;2023-11-22T07:06:03;43.60;;;22.07;;
52940;SDS011;62001;53.366;6.636;2023-11-22T07:08:29;48.17;;;22.37;;
52940;SDS011;62001;53.366;6.636;2023-11-22T07:10:55;46.10;;;22.80;;
52940;SDS011;62001;53.366;6.636;2023-11-22T07:13:24;48.83;;;23.83;;
52940;SDS011;62001;53.366;6.636;2023-11-22T07:15:51;52.30;;;23.43;;
52940;SDS011;62001;53.366;6.636;2023-11-22T07:18:19;50.43;;;23.80;;
52940;SDS011;62001;53.366;6.636;2023-11-22T07:20:49;49.83;;;23.52;;
52940;SDS011;62001;53.366;6.636;2023-11-22T07:23:15;51.47;;;23.67;;
52940;SDS011;62001;53.366;6.636;2023-11-22T07:25:41;51.80;;;22.73;;
52940;SDS011;62001;53.366;6.636;2023-11-22T07:28:09;50.07;;;22.77;;
52940;SDS011;62001;53.366;6.636;2023-11-22T07:30:35;49.30;;;23.00;;
52940;SDS011;62001;53.366;6.636;2023-11-22T07:33:03;41.27;;;22.43;;
52940;SDS011;62001;53.366;6.636;2023-11-22T07:35:31;45.60;;;23.17;;
52940;SDS011;62001;53.366;6.636;2023-11-22T07:37:57;45.43;;;22.70;;
52940;SDS011;62001;53.366;6.636;2023-11-22T07:40:23;44.67;;;21.23;;
52940;SDS011;62001;53.366;6.636;2023-11-22T07:42:48;38.57;;;20.90;;
52940;SDS011;62001;53.366;6.636;2023-11-22T07:45:14;43.30;;;22.23;;
52940;SDS011;62001;53.366;6.636;2023-11-22T07:47:41;45.13;;;22.93;;
52940;SDS011;62001;53.366;6.636;2023-11-22T07:50:09;43.03;;;21.80;;
52940;SDS011;62001;53.366;6.636;2023-11-22T07:52:36;42.90;;;21.83;;
52940;SDS011;62001;53.366;6.636;2023-11-22T07:55:04;43.60;;;21.90;;
52940;SDS011;62001;53.366;6.636;2023-11-22T07:57:38;43.00;;;19.77;;
52940;SDS011;62001;53.366;6.636;2023-11-22T08:00:04;43.53;;;21.37;;
52940;SDS011;62001;53.366;6.636;2023-11-22T08:02:33;39.10;;;20.37;;
52940;SDS011;62001;53.366;6.636;2023-11-22T08:04:59;44.27;;;21.87;;
52940;SDS011;62001;53.366;6.636;2023-11-22T08:07:28;48.03;;;24.27;;
52940;SDS011;62001;53.366;6.636;2023-11-22T08:09:54;44.47;;;22.77;;
52940;SDS011;62001;53.366;6.636;2023-11-22T08:12:20;45.63;;;21.57;;
52940;SDS011;62001;53.366;6.636;2023-11-22T08:14:48;37.03;;;20.07;;
52940;SDS011;62001;53.366;6.636;2023-11-22T08:17:14;44.60;;;22.30;;
52940;SDS011;62001;53.366;6.636;2023-11-22T08:19:39;40.80;;;21.40;;
52940;SDS011;62001;53.366;6.636;2023-11-22T08:22:06;41.20;;;20.37;;
52940;SDS011;62001;53.366;6.636;2023-11-22T08:24:32;40.33;;;21.97;;
52940;SDS011;62001;53.366;6.636;2023-11-22T08:26:58;40.43;;;20.97;;
52940;SDS011;62001;53.366;6.636;2023-11-22T08:29:24;41.20;;;22.23;;
52940;SDS011;62001;53.366;6.636;2023-11-22T08:31:50;50.20;;;23.43;;
52940;SDS011;62001;53.366;6.636;2023-11-22T08:34:18;44.33;;;23.07;;
52940;SDS011;62001;53.366;6.636;2023-11-22T08:36:43;40.80;;;23.33;;
52940;SDS011;62001;53.366;6.636;2023-11-22T08:39:09;43.30;;;23.70;;
52940;SDS011;62001;53.366;6.636;2023-11-22T08:41:35;42.10;;;23.40;;
52940;SDS011;62001;53.366;6.636;2023-11-22T08:44:03;45.10;;;22.30;;
52940;SDS011;62001;53.366;6.636;2023-11-22T08:46:29;43.97;;;23.43;;
52940;SDS011;62001;53.366;6.636;2023-11-22T08:48:55;45.20;;;23.77;;
52940;SDS011;62001;53.366;6.636;2023-11-22T08:51:21;42.17;;;22.67;;
52940;SDS011;62001;53.366;6.636;2023-11-22T08:53:47;41.60;;;22.33;;
52940;SDS011;62001;53.366;6.636;2023-11-22T08:56:14;44.23;;;23.80;;
52940;SDS011;62001;53.366;6.636;2023-11-22T08:58:40;41.17;;;23.27;;
52940;SDS011;62001;53.366;6.636;2023-11-22T09:01:08;44.03;;;23.67;;
52940;SDS011;62001;53.366;6.636;2023-11-22T09:03:34;41.23;;;22.87;;
52940;SDS011;62001;53.366;6.636;2023-11-22T09:06:00;41.57;;;22.80;;
52940;SDS011;62001;53.366;6.636;2023-11-22T09:08:26;42.50;;;23.83;;
52940;SDS011;62001;53.366;6.636;2023-11-22T09:10:52;44.30;;;23.73;;
52940;SDS011;62001;53.366;6.636;2023-11-22T09:13:21;44.33;;;22.50;;
52940;SDS011;62001;53.366;6.636;2023-11-22T09:15:49;43.40;;;22.80;;
52940;SDS011;62001;53.366;6.636;2023-11-22T09:18:15;40.20;;;21.17;;
52940;SDS011;62001;53.366;6.636;2023-11-22T09:20:41;38.20;;;22.40;;
52940;SDS011;62001;53.366;6.636;2023-11-22T09:23:10;40.73;;;22.63;;
52940;SDS011;62001;53.366;6.636;2023-11-22T09:25:36;38.37;;;21.20;;
52940;SDS011;62001;53.366;6.636;2023-11-22T09:28:02;35.80;;;21.27;;
52940;SDS011;62001;53.366;6.636;2023-11-22T09:30:29;39.93;;;21.43;;
52940;SDS011;62001;53.366;6.636;2023-11-22T09:33:08;36.87;;;20.43;;
52940;SDS011;62001;53.366;6.636;2023-11-22T09:35:40;37.87;;;19.97;;
52940;SDS011;62001;53.366;6.636;2023-11-22T09:38:08;29.90;;;18.57;;
52940;SDS011;62001;53.366;6.636;2023-11-22T09:40:43;34.00;;;19.63;;
52940;SDS011;62001;53.366;6.636;2023-11-22T09:43:11;31.87;;;19.40;;
52940;SDS011;62001;53.366;6.636;2023-11-22T09:45:37;31.07;;;18.80;;
52940;SDS011;62001;53.366;6.636;2023-11-22T09:48:14;29.80;;;17.33;;
52940;SDS011;62001;53.366;6.636;2023-11-22T09:53:32;31.13;;;18.33;;
52940;SDS011;62001;53.366;6.636;2023-11-22T09:56:00;29.20;;;17.53;;
52940;SDS011;62001;53.366;6.636;2023-11-22T09:58:31;25.77;;;16.97;;
52940;SDS011;62001;53.366;6.636;2023-11-22T10:01:01;28.37;;;17.07;;
52940;SDS011;62001;53.366;6.636;2023-11-22T10:03:29;24.58;;;16.63;;
52940;SDS011;62001;53.366;6.636;2023-11-22T10:05:58;26.37;;;16.50;;
52940;SDS011;62001;53.366;6.636;2023-11-22T10:08:27;26.20;;;16.53;;
52940;SDS011;62001;53.366;6.636;2023-11-22T10:10:57;26.30;;;16.00;;
52940;SDS011;62001;53.366;6.636;2023-11-22T10:13:24;26.33;;;16.27;;
52940;SDS011;62001;53.366;6.636;2023-11-22T10:15:51;24.73;;;16.33;;
52940;SDS011;62001;53.366;6.636;2023-11-22T10:18:18;23.97;;;15.40;;
52940;SDS011;62001;53.366;6.636;2023-11-22T10:20:50;27.23;;;16.90;;
52940;SDS011;62001;53.366;6.636;2023-11-22T10:23:19;27.13;;;17.20;;
52940;SDS011;62001;53.366;6.636;2023-11-22T10:25:50;25.13;;;16.23;;
52940;SDS011;62001;53.366;6.636;2023-11-22T10:28:18;24.47;;;16.40;;
52940;SDS011;62001;53.366;6.636;2023-11-22T10:30:48;23.30;;;16.27;;
52940;SDS011;62001;53.366;6.636;2023-11-22T10:33:16;25.20;;;16.03;;
52940;SDS011;62001;53.366;6.636;2023-11-22T10:35:47;27.93;;;16.77;;
52940;SDS011;62001;53.366;6.636;2023-11-22T10:38:15;28.33;;;17.70;;
52940;SDS011;62001;53.366;6.636;2023-11-22T10:40:41;27.83;;;16.13;;
52940;SDS011;62001;53.366;6.636;2023-11-22T10:43:13;29.07;;;17.03;;
52940;SDS011;62001;53.366;6.636;2023-11-22T10:45:41;27.20;;;16.70;;
52940;SDS011;62001;53.366;6.636;2023-11-22T10:48:16;27.20;;;16.13;;
52940;SDS011;62001;53.366;6.636;2023-11-22T10:50:43;24.10;;;16.37;;
52940;SDS011;62001;53.366;6.636;2023-11-22T10:53:11;25.13;;;15.60;;
52940;SDS011;62001;53.366;6.636;2023-11-22T10:55:49;24.83;;;15.90;;
52940;SDS011;62001;53.366;6.636;2023-11-22T10:58:20;23.42;;;16.17;;
52940;SDS011;62001;53.366;6.636;2023-11-22T11:00:46;25.53;;;16.23;;
52940;SDS011;62001;53.366;6.636;2023-11-22T11:03:17;22.57;;;14.47;;
52940;SDS011;62001;53.366;6.636;2023-11-22T11:05:52;21.73;;;14.77;;
52940;SDS011;62001;53.366;6.636;2023-11-22T11:08:24;20.00;;;13.77;;
52940;SDS011;62001;53.366;6.636;2023-11-22T11:10:52;21.53;;;13.63;;
52940;SDS011;62001;53.366;6.636;2023-11-22T11:13:21;19.87;;;13.60;;
52940;SDS011;62001;53.366;6.636;2023-11-22T11:15:48;18.47;;;12.73;;
52940;SDS011;62001;53.366;6.636;2023-11-22T11:18:16;16.17;;;11.77;;
52940;SDS011;62001;53.366;6.636;2023-11-22T11:20:49;16.53;;;12.33;;
52940;SDS011;62001;53.366;6.636;2023-11-22T11:23:25;16.13;;;10.97;;
52940;SDS011;62001;53.366;6.636;2023-11-22T11:25:53;15.67;;;10.07;;
52940;SDS011;62001;53.366;6.636;2023-11-22T11:28:25;12.73;;;10.30;;
52940;SDS011;62001;53.366;6.636;2023-11-22T11:30:51;13.07;;;9.80;;
52940;SDS011;62001;53.366;6.636;2023-11-22T11:33:19;13.97;;;9.90;;
52940;SDS011;62001;53.366;6.636;2023-11-22T11:35:52;13.77;;;10.00;;
52940;SDS011;62001;53.366;6.636;2023-11-22T11:38:21;13.23;;;9.77;;
52940;SDS011;62001;53.366;6.636;2023-11-22T11:40:55;12.43;;;9.67;;
52940;SDS011;62001;53.366;6.636;2023-11-22T11:43:38;18.67;;;9.43;;
52940;SDS011;62001;53.366;6.636;2023-11-22T11:46:07;13.23;;;9.40;;
52940;SDS011;62001;53.366;6.636;2023-11-22T11:48:34;13.77;;;9.47;;
52940;SDS011;62001;53.366;6.636;2023-11-22T11:51:00;13.63;;;9.20;;
52940;SDS011;62001;53.366;6.636;2023-11-22T11:53:26;12.03;;;8.77;;
52940;SDS011;62001;53.366;6.636;2023-11-22T11:55:53;12.33;;;8.73;;
52940;SDS011;62001;53.366;6.636;2023-11-22T11:58:19;12.57;;;9.27;;
52940;SDS011;62001;53.366;6.636;2023-11-22T12:00:45;12.53;;;9.43;;
52940;SDS011;62001;53.366;6.636;2023-11-22T12:03:11;12.60;;;9.03;;
52940;SDS011;62001;53.366;6.636;2023-11-22T12:05:38;12.13;;;8.80;;
52940;SDS011;62001;53.366;6.636;2023-11-22T12:08:04;11.83;;;9.07;;
52940;SDS011;62001;53.366;6.636;2023-11-22T12:10:30;13.13;;;9.40;;
52940;SDS011;62001;53.366;6.636;2023-11-22T12:12:57;12.13;;;8.67;;
52940;SDS011;62001;53.366;6.636;2023-11-22T12:15:24;13.30;;;8.80;;
52940;SDS011;62001;53.366;6.636;2023-11-22T12:17:50;13.50;;;9.43;;
52940;SDS011;62001;53.366;6.636;2023-11-22T12:20:17;12.23;;;8.60;;
52940;SDS011;62001;53.366;6.636;2023-11-22T12:22:46;11.33;;;8.77;;
52940;SDS011;62001;53.366;6.636;2023-11-22T12:25:13;15.15;;;8.80;;
52940;SDS011;62001;53.366;6.636;2023-11-22T12:27:40;11.93;;;8.50;;
52940;SDS011;62001;53.366;6.636;2023-11-22T12:30:07;11.70;;;8.80;;
52940;SDS011;62001;53.366;6.636;2023-11-22T12:32:38;11.97;;;8.30;;
52940;SDS011;62001;53.366;6.636;2023-11-22T12:35:05;10.68;;;8.02;;
52940;SDS011;62001;53.366;6.636;2023-11-22T12:37:33;11.23;;;8.27;;
52940;SDS011;62001;53.366;6.636;2023-11-22T12:40:06;11.07;;;8.03;;
52940;SDS011;62001;53.366;6.636;2023-11-22T12:42:45;11.77;;;7.80;;
52940;SDS011;62001;53.366;6.636;2023-11-22T12:45:19;14.67;;;8.33;;
52940;SDS011;62001;53.366;6.636;2023-11-22T12:47:49;12.20;;;8.33;;
52940;SDS011;62001;53.366;6.636;2023-11-22T12:52:58;10.67;;;8.20;;
52940;SDS011;62001;53.366;6.636;2023-11-22T12:55:25;11.13;;;8.40;;
52940;SDS011;62001;53.366;6.636;2023-11-22T12:57:57;12.83;;;8.33;;
52940;SDS011;62001;53.366;6.636;2023-11-22T13:00:26;11.13;;;8.33;;
52940;SDS011;62001;53.366;6.636;2023-11-22T13:02:54;12.27;;;8.77;;
52940;SDS011;62001;53.366;6.636;2023-11-22T13:05:23;13.53;;;9.07;;
52940;SDS011;62001;53.366;6.636;2023-11-22T13:07:49;11.90;;;8.70;;
52940;SDS011;62001;53.366;6.636;2023-11-22T13:10:16;12.50;;;8.87;;
52940;SDS011;62001;53.366;6.636;2023-11-22T13:12:42;13.73;;;9.80;;
52940;SDS011;62001;53.366;6.636;2023-11-22T13:15:13;11.43;;;8.43;;
52940;SDS011;62001;53.366;6.636;2023-11-22T13:17:39;12.03;;;9.43;;
52940;SDS011;62001;53.366;6.636;2023-11-22T13:20:08;13.93;;;9.17;;
52940;SDS011;62001;53.366;6.636;2023-11-22T13:22:41;15.97;;;9.70;;
52940;SDS011;62001;53.366;6.636;2023-11-22T13:25:08;12.40;;;9.60;;
52940;SDS011;62001;53.366;6.636;2023-11-22T13:27:36;12.27;;;9.50;;
52940;SDS011;62001;53.366;6.636;2023-11-22T13:30:02;13.37;;;9.10;;
52940;SDS011;62001;53.366;6.636;2023-11-22T13:32:30;14.67;;;9.03;;
52940;SDS011;62001;53.366;6.636;2023-11-22T13:34:56;13.17;;;9.37;;
52940;SDS011;62001;53.366;6.636;2023-11-22T13:37:23;12.17;;;9.23;;
52940;SDS011;62001;53.366;6.636;2023-11-22T13:39:49;11.30;;;9.10;;
52940;SDS011;62001;53.366;6.636;2023-11-22T13:42:15;12.03;;;8.90;;
52940;SDS011;62001;53.366;6.636;2023-11-22T13:44:42;11.97;;;9.63;;
52940;SDS011;62001;53.366;6.636;2023-11-22T13:47:09;12.33;;;9.00;;
52940;SDS011;62001;53.366;6.636;2023-11-22T13:49:36;12.70;;;9.17;;
52940;SDS011;62001;53.366;6.636;2023-11-22T13:52:05;13.03;;;9.57;;
52940;SDS011;62001;53.366;6.636;2023-11-22T13:54:31;13.77;;;10.07;;
52940;SDS011;62001;53.366;6.636;2023-11-22T13:57:00;12.37;;;9.70;;
52940;SDS011;62001;53.366;6.636;2023-11-22T13:59:26;14.53;;;9.60;;
52940;SDS011;62001;53.366;6.636;2023-11-22T14:01:52;12.93;;;9.80;;
52940;SDS011;62001;53.366;6.636;2023-11-22T14:04:18;13.47;;;9.63;;
52940;SDS011;62001;53.366;6.636;2023-11-22T14:06:44;13.13;;;9.10;;
52940;SDS011;62001;53.366;6.636;2023-11-22T14:09:09;13.43;;;9.07;;
52940;SDS011;62001;53.366;6.636;2023-11-22T14:11:38;12.50;;;9.57;;
52940;SDS011;62001;53.366;6.636;2023-11-22T14:14:04;13.13;;;9.27;;
52940;SDS011;62001;53.366;6.636;2023-11-22T14:16:30;14.50;;;9.60;;
52940;SDS011;62001;53.366;6.636;2023-11-22T14:18:56;12.30;;;8.70;;
52940;SDS011;62001;53.366;6.636;2023-11-22T14:21:23;15.37;;;9.90;;
52940;SDS011;62001;53.366;6.636;2023-11-22T14:23:50;13.37;;;8.87;;
52940;SDS011;62001;53.366;6.636;2023-11-22T14:26:16;14.17;;;10.13;;
52940;SDS011;62001;53.366;6.636;2023-11-22T14:28:41;12.70;;;9.17;;
52940;SDS011;62001;53.366;6.636;2023-11-22T14:31:08;13.47;;;9.80;;
52940;SDS011;62001;53.366;6.636;2023-11-22T14:33:34;13.17;;;8.60;;
52940;SDS011;62001;53.366;6.636;2023-11-22T14:36:00;14.13;;;8.97;;